sensor_id;sensor_type;location;lat;lon;timestamp;P1;durP1;ratioP1;P2;durP2;ratioP2
69369;SDS011;56530;42.640;23.372;2022-12-18T00:01:19;3.83;;;3.53;;
69369;SDS011;56530;42.640;23.372;2022-12-18T00:03:46;4.68;;;4.07;;
69369;SDS011;56530;42.640;23.372;2022-12-18T00:06:12;6.28;;;4.05;;
69369;SDS011;56530;42.640;23.372;2022-12-18T00:08:38;3.95;;;3.30;;
69369;SDS011;56530;42.640;23.372;2022-12-18T00:11:05;4.65;;;4.20;;
69369;SDS011;56530;42.640;23.372;2022-12-18T00:13:35;5.03;;;4.43;;
69369;SDS011;56530;42.640;23.372;2022-12-18T00:16:04;5.22;;;4.75;;
69369;SDS011;56530;42.640;23.372;2022-12-18T00:18:37;4.30;;;3.92;;
69369;SDS011;56530;42.640;23.372;2022-12-18T00:21:06;4.10;;;3.70;;
69369;SDS011;56530;42.640;23.372;2022-12-18T00:23:32;6.28;;;4.55;;
69369;SDS011;56530;42.640;23.372;2022-12-18T00:26:02;4.85;;;4.35;;
69369;SDS011;56530;42.640;23.372;2022-12-18T00:28:29;4.82;;;4.32;;
69369;SDS011;56530;42.640;23.372;2022-12-18T00:31:02;4.85;;;4.13;;
69369;SDS011;56530;42.640;23.372;2022-12-18T00:33:28;4.72;;;4.18;;
69369;SDS011;56530;42.640;23.372;2022-12-18T00:35:53;5.70;;;4.45;;
69369;SDS011;56530;42.640;23.372;2022-12-18T00:38:19;4.82;;;4.43;;
69369;SDS011;56530;42.640;23.372;2022-12-18T00:40:44;5.40;;;4.90;;
69369;SDS011;56530;42.640;23.372;2022-12-18T00:43:09;5.55;;;4.75;;
69369;SDS011;56530;42.640;23.372;2022-12-18T00:45:35;4.97;;;4.47;;
69369;SDS011;56530;42.640;23.372;2022-12-18T00:48:01;6.38;;;4.70;;
69369;SDS011;56530;42.640;23.372;2022-12-18T00:50:27;6.53;;;5.45;;
69369;SDS011;56530;42.640;23.372;2022-12-18T00:52:52;6.13;;;5.55;;
69369;SDS011;56530;42.640;23.372;2022-12-18T00:55:18;5.90;;;5.40;;
69369;SDS011;56530;42.640;23.372;2022-12-18T00:57:43;5.47;;;4.97;;
69369;SDS011;56530;42.640;23.372;2022-12-18T01:00:10;6.03;;;5.53;;
69369;SDS011;56530;42.640;23.372;2022-12-18T01:02:37;5.57;;;5.05;;
69369;SDS011;56530;42.640;23.372;2022-12-18T01:05:04;6.78;;;6.18;;
69369;SDS011;56530;42.640;23.372;2022-12-18T01:07:30;6.25;;;5.25;;
69369;SDS011;56530;42.640;23.372;2022-12-18T01:09:55;6.68;;;5.65;;
69369;SDS011;56530;42.640;23.372;2022-12-18T01:12:20;10.75;;;6.22;;
69369;SDS011;56530;42.640;23.372;2022-12-18T01:14:46;6.65;;;5.95;;
69369;SDS011;56530;42.640;23.372;2022-12-18T01:17:11;6.35;;;5.63;;
69369;SDS011;56530;42.640;23.372;2022-12-18T01:19:37;8.95;;;6.47;;
69369;SDS011;56530;42.640;23.372;2022-12-18T01:22:02;6.70;;;6.03;;
69369;SDS011;56530;42.640;23.372;2022-12-18T01:24:28;8.10;;;7.15;;
69369;SDS011;56530;42.640;23.372;2022-12-18T01:26:53;6.65;;;5.93;;
69369;SDS011;56530;42.640;23.372;2022-12-18T01:29:19;8.95;;;6.72;;
69369;SDS011;56530;42.640;23.372;2022-12-18T01:31:44;6.82;;;6.07;;
69369;SDS011;56530;42.640;23.372;2022-12-18T01:34:09;6.72;;;5.50;;
69369;SDS011;56530;42.640;23.372;2022-12-18T01:36:36;8.02;;;6.35;;
69369;SDS011;56530;42.640;23.372;2022-12-18T01:39:05;6.75;;;6.05;;
69369;SDS011;56530;42.640;23.372;2022-12-18T01:41:33;5.78;;;5.15;;
69369;SDS011;56530;42.640;23.372;2022-12-18T01:52:37;7.55;;;6.03;;
69369;SDS011;56530;42.640;23.372;2022-12-18T01:55:03;6.65;;;5.80;;
69369;SDS011;56530;42.640;23.372;2022-12-18T01:57:30;8.90;;;5.65;;
69369;SDS011;56530;42.640;23.372;2022-12-18T01:59:57;7.50;;;6.70;;
69369;SDS011;56530;42.640;23.372;2022-12-18T02:02:26;6.93;;;6.20;;
69369;SDS011;56530;42.640;23.372;2022-12-18T02:04:52;8.27;;;7.03;;
69369;SDS011;56530;42.640;23.372;2022-12-18T02:07:27;8.48;;;7.13;;
69369;SDS011;56530;42.640;23.372;2022-12-18T02:10:17;6.50;;;5.85;;
69369;SDS011;56530;42.640;23.372;2022-12-18T02:12:56;6.38;;;5.15;;
69369;SDS011;56530;42.640;23.372;2022-12-18T02:15:49;6.88;;;6.18;;
69369;SDS011;56530;42.640;23.372;2022-12-18T02:18:19;8.05;;;6.35;;
69369;SDS011;56530;42.640;23.372;2022-12-18T02:20:48;7.60;;;6.78;;
69369;SDS011;56530;42.640;23.372;2022-12-18T02:28:52;7.40;;;6.10;;
69369;SDS011;56530;42.640;23.372;2022-12-18T02:31:21;6.97;;;6.18;;
69369;SDS011;56530;42.640;23.372;2022-12-18T02:33:49;8.32;;;6.80;;
69369;SDS011;56530;42.640;23.372;2022-12-18T02:36:16;6.97;;;6.38;;
69369;SDS011;56530;42.640;23.372;2022-12-18T02:38:43;8.27;;;6.35;;
69369;SDS011;56530;42.640;23.372;2022-12-18T02:41:09;9.38;;;7.28;;
69369;SDS011;56530;42.640;23.372;2022-12-18T02:43:35;6.88;;;6.18;;
69369;SDS011;56530;42.640;23.372;2022-12-18T02:46:01;8.63;;;6.07;;
69369;SDS011;56530;42.640;23.372;2022-12-18T02:48:48;8.57;;;7.63;;
69369;SDS011;56530;42.640;23.372;2022-12-18T02:51:17;9.73;;;7.60;;
69369;SDS011;56530;42.640;23.372;2022-12-18T02:56:51;7.07;;;6.38;;
69369;SDS011;56530;42.640;23.372;2022-12-18T02:59:20;7.85;;;6.43;;
69369;SDS011;56530;42.640;23.372;2022-12-18T03:01:55;8.88;;;6.60;;
69369;SDS011;56530;42.640;23.372;2022-12-18T03:04:37;13.23;;;7.00;;
69369;SDS011;56530;42.640;23.372;2022-12-18T03:07:12;11.32;;;6.72;;
69369;SDS011;56530;42.640;23.372;2022-12-18T03:09:43;6.80;;;6.13;;
69369;SDS011;56530;42.640;23.372;2022-12-18T03:12:19;6.63;;;5.93;;
69369;SDS011;56530;42.640;23.372;2022-12-18T03:14:49;5.90;;;5.30;;
69369;SDS011;56530;42.640;23.372;2022-12-18T03:17:20;6.38;;;5.63;;
69369;SDS011;56530;42.640;23.372;2022-12-18T03:19:47;7.28;;;6.40;;
69369;SDS011;56530;42.640;23.372;2022-12-18T03:22:13;7.00;;;6.05;;
69369;SDS011;56530;42.640;23.372;2022-12-18T03:24:40;8.73;;;6.88;;
69369;SDS011;56530;42.640;23.372;2022-12-18T03:27:07;7.65;;;6.82;;
69369;SDS011;56530;42.640;23.372;2022-12-18T03:32:09;7.13;;;6.43;;
69369;SDS011;56530;42.640;23.372;2022-12-18T03:34:38;6.63;;;6.00;;
69369;SDS011;56530;42.640;23.372;2022-12-18T03:37:05;7.35;;;6.10;;
69369;SDS011;56530;42.640;23.372;2022-12-18T03:39:31;7.30;;;6.53;;
69369;SDS011;56530;42.640;23.372;2022-12-18T03:47:25;8.00;;;6.60;;
69369;SDS011;56530;42.640;23.372;2022-12-18T03:50:20;7.00;;;5.75;;
69369;SDS011;56530;42.640;23.372;2022-12-18T03:53:14;6.68;;;5.57;;
69369;SDS011;56530;42.640;23.372;2022-12-18T03:55:48;7.90;;;5.25;;
69369;SDS011;56530;42.640;23.372;2022-12-18T03:58:15;6.93;;;5.28;;
69369;SDS011;56530;42.640;23.372;2022-12-18T04:00:43;6.78;;;6.05;;
69369;SDS011;56530;42.640;23.372;2022-12-18T04:03:09;6.77;;;5.73;;
69369;SDS011;56530;42.640;23.372;2022-12-18T04:05:35;7.65;;;6.20;;
69369;SDS011;56530;42.640;23.372;2022-12-18T04:08:02;6.93;;;5.80;;
69369;SDS011;56530;42.640;23.372;2022-12-18T04:10:28;7.15;;;6.10;;
69369;SDS011;56530;42.640;23.372;2022-12-18T04:12:57;7.63;;;5.97;;
69369;SDS011;56530;42.640;23.372;2022-12-18T04:15:23;7.20;;;6.03;;
69369;SDS011;56530;42.640;23.372;2022-12-18T04:17:48;5.40;;;4.90;;
69369;SDS011;56530;42.640;23.372;2022-12-18T04:22:40;7.65;;;6.47;;
69369;SDS011;56530;42.640;23.372;2022-12-18T04:25:05;6.80;;;5.53;;
69369;SDS011;56530;42.640;23.372;2022-12-18T04:27:31;6.90;;;5.80;;
69369;SDS011;56530;42.640;23.372;2022-12-18T04:29:56;8.32;;;5.85;;
69369;SDS011;56530;42.640;23.372;2022-12-18T04:32:21;7.35;;;5.90;;
69369;SDS011;56530;42.640;23.372;2022-12-18T04:34:47;9.40;;;6.43;;
69369;SDS011;56530;42.640;23.372;2022-12-18T04:37:12;9.15;;;6.90;;
69369;SDS011;56530;42.640;23.372;2022-12-18T04:39:38;7.75;;;5.95;;
69369;SDS011;56530;42.640;23.372;2022-12-18T04:42:03;7.50;;;5.90;;
69369;SDS011;56530;42.640;23.372;2022-12-18T04:44:28;8.90;;;6.85;;
69369;SDS011;56530;42.640;23.372;2022-12-18T04:46:54;10.40;;;6.55;;
69369;SDS011;56530;42.640;23.372;2022-12-18T04:49:20;8.43;;;7.57;;
69369;SDS011;56530;42.640;23.372;2022-12-18T04:51:46;9.15;;;7.30;;
69369;SDS011;56530;42.640;23.372;2022-12-18T04:54:11;8.80;;;6.85;;
69369;SDS011;56530;42.640;23.372;2022-12-18T04:56:36;9.33;;;6.83;;
69369;SDS011;56530;42.640;23.372;2022-12-18T04:59:02;9.43;;;6.97;;
69369;SDS011;56530;42.640;23.372;2022-12-18T05:01:27;9.00;;;7.23;;
69369;SDS011;56530;42.640;23.372;2022-12-18T05:03:53;12.37;;;8.00;;
69369;SDS011;56530;42.640;23.372;2022-12-18T05:06:18;9.10;;;7.13;;
69369;SDS011;56530;42.640;23.372;2022-12-18T05:08:43;11.15;;;8.20;;
69369;SDS011;56530;42.640;23.372;2022-12-18T05:11:10;11.70;;;8.25;;
69369;SDS011;56530;42.640;23.372;2022-12-18T05:13:37;10.87;;;7.90;;
69369;SDS011;56530;42.640;23.372;2022-12-18T05:16:03;9.47;;;7.53;;
69369;SDS011;56530;42.640;23.372;2022-12-18T05:18:29;9.83;;;6.60;;
69369;SDS011;56530;42.640;23.372;2022-12-18T05:20:55;8.83;;;6.80;;
69369;SDS011;56530;42.640;23.372;2022-12-18T05:23:21;11.30;;;8.33;;
69369;SDS011;56530;42.640;23.372;2022-12-18T05:26:08;9.88;;;8.05;;
69369;SDS011;56530;42.640;23.372;2022-12-18T05:28:33;10.43;;;8.40;;
69369;SDS011;56530;42.640;23.372;2022-12-18T05:31:00;13.60;;;8.55;;
69369;SDS011;56530;42.640;23.372;2022-12-18T05:33:29;9.80;;;7.20;;
69369;SDS011;56530;42.640;23.372;2022-12-18T05:35:56;11.77;;;8.70;;
69369;SDS011;56530;42.640;23.372;2022-12-18T05:38:23;11.30;;;8.30;;
69369;SDS011;56530;42.640;23.372;2022-12-18T05:40:49;8.40;;;7.10;;
69369;SDS011;56530;42.640;23.372;2022-12-18T05:43:15;9.95;;;7.40;;
69369;SDS011;56530;42.640;23.372;2022-12-18T05:45:41;12.50;;;7.70;;
69369;SDS011;56530;42.640;23.372;2022-12-18T05:48:07;10.07;;;7.97;;
69369;SDS011;56530;42.640;23.372;2022-12-18T05:50:36;11.63;;;7.60;;
69369;SDS011;56530;42.640;23.372;2022-12-18T05:53:03;11.33;;;8.17;;
69369;SDS011;56530;42.640;23.372;2022-12-18T05:55:28;12.60;;;8.13;;
69369;SDS011;56530;42.640;23.372;2022-12-18T05:57:54;10.82;;;8.43;;
69369;SDS011;56530;42.640;23.372;2022-12-18T06:00:19;10.33;;;8.20;;
69369;SDS011;56530;42.640;23.372;2022-12-18T06:02:48;13.83;;;9.30;;
69369;SDS011;56530;42.640;23.372;2022-12-18T06:05:13;12.07;;;9.43;;
69369;SDS011;56530;42.640;23.372;2022-12-18T06:07:39;13.43;;;9.47;;
69369;SDS011;56530;42.640;23.372;2022-12-18T06:10:04;12.70;;;9.03;;
69369;SDS011;56530;42.640;23.372;2022-12-18T06:12:30;12.13;;;8.37;;
69369;SDS011;56530;42.640;23.372;2022-12-18T06:14:56;10.27;;;8.03;;
69369;SDS011;56530;42.640;23.372;2022-12-18T06:17:21;12.60;;;9.47;;
69369;SDS011;56530;42.640;23.372;2022-12-18T06:19:47;13.03;;;9.47;;
69369;SDS011;56530;42.640;23.372;2022-12-18T06:22:12;14.77;;;11.70;;
69369;SDS011;56530;42.640;23.372;2022-12-18T06:24:38;13.60;;;11.43;;
69369;SDS011;56530;42.640;23.372;2022-12-18T06:27:03;12.47;;;9.57;;
69369;SDS011;56530;42.640;23.372;2022-12-18T06:29:28;14.40;;;9.70;;
69369;SDS011;56530;42.640;23.372;2022-12-18T06:31:54;11.97;;;9.07;;
69369;SDS011;56530;42.640;23.372;2022-12-18T06:34:19;15.03;;;8.90;;
69369;SDS011;56530;42.640;23.372;2022-12-18T06:36:45;14.20;;;11.50;;
69369;SDS011;56530;42.640;23.372;2022-12-18T06:39:10;14.93;;;12.52;;
69369;SDS011;56530;42.640;23.372;2022-12-18T06:41:35;17.43;;;12.13;;
69369;SDS011;56530;42.640;23.372;2022-12-18T06:44:01;15.40;;;12.03;;
69369;SDS011;56530;42.640;23.372;2022-12-18T06:46:26;16.23;;;12.38;;
69369;SDS011;56530;42.640;23.372;2022-12-18T06:48:52;15.50;;;12.67;;
69369;SDS011;56530;42.640;23.372;2022-12-18T06:51:18;13.67;;;10.97;;
69369;SDS011;56530;42.640;23.372;2022-12-18T06:53:44;15.82;;;12.18;;
69369;SDS011;56530;42.640;23.372;2022-12-18T06:56:10;15.07;;;10.77;;
69369;SDS011;56530;42.640;23.372;2022-12-18T06:58:35;15.68;;;10.80;;
69369;SDS011;56530;42.640;23.372;2022-12-18T07:01:01;13.60;;;9.98;;
69369;SDS011;56530;42.640;23.372;2022-12-18T07:03:32;13.45;;;9.80;;
69369;SDS011;56530;42.640;23.372;2022-12-18T07:05:57;12.80;;;9.40;;
69369;SDS011;56530;42.640;23.372;2022-12-18T07:08:23;14.23;;;9.47;;
69369;SDS011;56530;42.640;23.372;2022-12-18T07:10:48;15.77;;;11.90;;
69369;SDS011;56530;42.640;23.372;2022-12-18T07:13:15;14.27;;;11.88;;
69369;SDS011;56530;42.640;23.372;2022-12-18T07:15:41;15.80;;;11.80;;
69369;SDS011;56530;42.640;23.372;2022-12-18T07:18:06;15.77;;;12.13;;
69369;SDS011;56530;42.640;23.372;2022-12-18T07:20:32;12.38;;;9.98;;
69369;SDS011;56530;42.640;23.372;2022-12-18T07:22:57;15.70;;;10.32;;
69369;SDS011;56530;42.640;23.372;2022-12-18T07:25:22;13.60;;;10.00;;
69369;SDS011;56530;42.640;23.372;2022-12-18T07:27:48;13.07;;;9.77;;
69369;SDS011;56530;42.640;23.372;2022-12-18T07:30:13;14.03;;;9.70;;
69369;SDS011;56530;42.640;23.372;2022-12-18T07:32:38;14.17;;;9.70;;
69369;SDS011;56530;42.640;23.372;2022-12-18T07:35:04;12.47;;;10.20;;
69369;SDS011;56530;42.640;23.372;2022-12-18T07:37:29;13.30;;;9.73;;
69369;SDS011;56530;42.640;23.372;2022-12-18T07:39:55;17.80;;;10.83;;
69369;SDS011;56530;42.640;23.372;2022-12-18T07:42:20;14.77;;;9.77;;
69369;SDS011;56530;42.640;23.372;2022-12-18T07:44:58;19.23;;;10.43;;
69369;SDS011;56530;42.640;23.372;2022-12-18T07:47:24;15.10;;;9.93;;
69369;SDS011;56530;42.640;23.372;2022-12-18T07:49:50;15.20;;;10.07;;
69369;SDS011;56530;42.640;23.372;2022-12-18T07:52:15;17.60;;;10.43;;
69369;SDS011;56530;42.640;23.372;2022-12-18T07:54:41;13.43;;;10.13;;
69369;SDS011;56530;42.640;23.372;2022-12-18T07:57:06;16.27;;;10.57;;
69369;SDS011;56530;42.640;23.372;2022-12-18T07:59:32;16.20;;;10.47;;
69369;SDS011;56530;42.640;23.372;2022-12-18T08:01:57;13.97;;;9.93;;
69369;SDS011;56530;42.640;23.372;2022-12-18T08:04:23;16.13;;;9.87;;
69369;SDS011;56530;42.640;23.372;2022-12-18T08:06:49;14.10;;;10.37;;
69369;SDS011;56530;42.640;23.372;2022-12-18T08:09:14;14.97;;;11.27;;
69369;SDS011;56530;42.640;23.372;2022-12-18T08:11:40;16.03;;;11.17;;
69369;SDS011;56530;42.640;23.372;2022-12-18T08:14:05;12.65;;;9.40;;
69369;SDS011;56530;42.640;23.372;2022-12-18T08:16:30;16.33;;;11.60;;
69369;SDS011;56530;42.640;23.372;2022-12-18T08:18:56;17.90;;;11.97;;
69369;SDS011;56530;42.640;23.372;2022-12-18T08:21:26;19.00;;;12.60;;
69369;SDS011;56530;42.640;23.372;2022-12-18T08:23:53;14.57;;;9.93;;
69369;SDS011;56530;42.640;23.372;2022-12-18T08:26:19;17.80;;;12.80;;
69369;SDS011;56530;42.640;23.372;2022-12-18T08:28:45;15.27;;;11.53;;
69369;SDS011;56530;42.640;23.372;2022-12-18T08:31:11;18.67;;;11.97;;
69369;SDS011;56530;42.640;23.372;2022-12-18T08:33:36;15.17;;;11.60;;
69369;SDS011;56530;42.640;23.372;2022-12-18T08:36:03;16.53;;;11.90;;
69369;SDS011;56530;42.640;23.372;2022-12-18T08:38:28;16.57;;;12.83;;
69369;SDS011;56530;42.640;23.372;2022-12-18T08:41:04;19.53;;;12.90;;
69369;SDS011;56530;42.640;23.372;2022-12-18T08:43:31;17.53;;;11.83;;
69369;SDS011;56530;42.640;23.372;2022-12-18T08:46:15;16.83;;;11.33;;
69369;SDS011;56530;42.640;23.372;2022-12-18T08:48:41;18.30;;;11.63;;
69369;SDS011;56530;42.640;23.372;2022-12-18T08:51:07;18.30;;;11.63;;
69369;SDS011;56530;42.640;23.372;2022-12-18T08:53:34;18.07;;;12.80;;
69369;SDS011;56530;42.640;23.372;2022-12-18T08:56:00;16.60;;;11.13;;
69369;SDS011;56530;42.640;23.372;2022-12-18T08:58:25;21.00;;;13.90;;
69369;SDS011;56530;42.640;23.372;2022-12-18T09:00:51;16.97;;;11.80;;
69369;SDS011;56530;42.640;23.372;2022-12-18T09:03:16;24.60;;;15.03;;
69369;SDS011;56530;42.640;23.372;2022-12-18T09:05:43;19.23;;;13.37;;
69369;SDS011;56530;42.640;23.372;2022-12-18T09:08:08;18.13;;;13.33;;
69369;SDS011;56530;42.640;23.372;2022-12-18T09:10:34;17.20;;;12.17;;
69369;SDS011;56530;42.640;23.372;2022-12-18T09:13:05;22.00;;;13.10;;
69369;SDS011;56530;42.640;23.372;2022-12-18T09:15:31;18.60;;;13.43;;
69369;SDS011;56530;42.640;23.372;2022-12-18T09:17:56;15.17;;;11.77;;
69369;SDS011;56530;42.640;23.372;2022-12-18T09:20:21;18.87;;;13.43;;
69369;SDS011;56530;42.640;23.372;2022-12-18T09:22:47;19.63;;;12.90;;
69369;SDS011;56530;42.640;23.372;2022-12-18T09:25:12;19.98;;;13.38;;
69369;SDS011;56530;42.640;23.372;2022-12-18T09:27:38;21.83;;;13.63;;
69369;SDS011;56530;42.640;23.372;2022-12-18T09:30:04;21.50;;;13.00;;
69369;SDS011;56530;42.640;23.372;2022-12-18T09:32:30;20.60;;;13.77;;
69369;SDS011;56530;42.640;23.372;2022-12-18T09:34:55;17.13;;;11.37;;
69369;SDS011;56530;42.640;23.372;2022-12-18T09:37:21;18.37;;;13.07;;
69369;SDS011;56530;42.640;23.372;2022-12-18T09:39:46;18.07;;;12.30;;
69369;SDS011;56530;42.640;23.372;2022-12-18T09:42:20;16.83;;;11.60;;
69369;SDS011;56530;42.640;23.372;2022-12-18T09:44:49;17.07;;;12.13;;
69369;SDS011;56530;42.640;23.372;2022-12-18T09:47:17;20.27;;;12.60;;
69369;SDS011;56530;42.640;23.372;2022-12-18T09:49:57;16.45;;;12.15;;
69369;SDS011;56530;42.640;23.372;2022-12-18T09:52:37;17.10;;;12.90;;
69369;SDS011;56530;42.640;23.372;2022-12-18T09:55:08;18.63;;;11.50;;
69369;SDS011;56530;42.640;23.372;2022-12-18T09:57:42;17.47;;;11.90;;
69369;SDS011;56530;42.640;23.372;2022-12-18T10:02:43;17.50;;;12.50;;
69369;SDS011;56530;42.640;23.372;2022-12-18T10:05:12;22.70;;;14.63;;
69369;SDS011;56530;42.640;23.372;2022-12-18T10:15:31;20.02;;;11.90;;
69369;SDS011;56530;42.640;23.372;2022-12-18T10:18:18;17.50;;;11.15;;
69369;SDS011;56530;42.640;23.372;2022-12-18T10:20:48;22.17;;;13.20;;
69369;SDS011;56530;42.640;23.372;2022-12-18T10:23:28;17.67;;;11.40;;
69369;SDS011;56530;42.640;23.372;2022-12-18T10:26:10;25.00;;;14.70;;
69369;SDS011;56530;42.640;23.372;2022-12-18T10:28:36;19.93;;;13.33;;
69369;SDS011;56530;42.640;23.372;2022-12-18T10:31:24;17.30;;;11.75;;
69369;SDS011;56530;42.640;23.372;2022-12-18T10:33:49;17.80;;;10.80;;
69369;SDS011;56530;42.640;23.372;2022-12-18T10:36:15;17.33;;;10.77;;
69369;SDS011;56530;42.640;23.372;2022-12-18T10:38:40;17.87;;;11.63;;
69369;SDS011;56530;42.640;23.372;2022-12-18T10:41:27;20.90;;;12.30;;
69369;SDS011;56530;42.640;23.372;2022-12-18T10:46:36;17.25;;;11.95;;
69369;SDS011;56530;42.640;23.372;2022-12-18T10:49:01;18.27;;;12.37;;
69369;SDS011;56530;42.640;23.372;2022-12-18T10:51:31;19.40;;;12.90;;
69369;SDS011;56530;42.640;23.372;2022-12-18T10:54:05;17.77;;;11.23;;
69369;SDS011;56530;42.640;23.372;2022-12-18T10:56:37;18.00;;;12.30;;
69369;SDS011;56530;42.640;23.372;2022-12-18T10:59:04;20.10;;;12.10;;
69369;SDS011;56530;42.640;23.372;2022-12-18T11:09:26;18.97;;;12.47;;
69369;SDS011;56530;42.640;23.372;2022-12-18T11:11:56;29.23;;;17.17;;
69369;SDS011;56530;42.640;23.372;2022-12-18T11:14:28;22.00;;;13.68;;
69369;SDS011;56530;42.640;23.372;2022-12-18T11:16:55;40.85;;;16.55;;
69369;SDS011;56530;42.640;23.372;2022-12-18T11:21:50;20.67;;;12.32;;
69369;SDS011;56530;42.640;23.372;2022-12-18T11:24:33;18.90;;;12.60;;
69369;SDS011;56530;42.640;23.372;2022-12-18T11:27:00;14.30;;;10.33;;
69369;SDS011;56530;42.640;23.372;2022-12-18T11:29:35;14.77;;;10.83;;
69369;SDS011;56530;42.640;23.372;2022-12-18T11:32:22;16.70;;;11.13;;
69369;SDS011;56530;42.640;23.372;2022-12-18T11:34:55;17.50;;;11.93;;
69369;SDS011;56530;42.640;23.372;2022-12-18T11:37:45;16.63;;;11.27;;
69369;SDS011;56530;42.640;23.372;2022-12-18T11:40:17;21.47;;;12.33;;
69369;SDS011;56530;42.640;23.372;2022-12-18T11:42:48;18.03;;;11.07;;
69369;SDS011;56530;42.640;23.372;2022-12-18T11:48:04;17.17;;;11.87;;
69369;SDS011;56530;42.640;23.372;2022-12-18T11:53:16;17.00;;;10.95;;
69369;SDS011;56530;42.640;23.372;2022-12-18T11:55:57;17.30;;;11.80;;
69369;SDS011;56530;42.640;23.372;2022-12-18T12:30:22;16.63;;;11.40;;
69369;SDS011;56530;42.640;23.372;2022-12-18T12:35:58;19.43;;;12.87;;
69369;SDS011;56530;42.640;23.372;2022-12-18T12:38:41;21.58;;;13.45;;
69369;SDS011;56530;42.640;23.372;2022-12-18T12:41:16;20.00;;;12.95;;
69369;SDS011;56530;42.640;23.372;2022-12-18T12:44:03;19.73;;;12.80;;
69369;SDS011;56530;42.640;23.372;2022-12-18T12:46:32;24.77;;;13.10;;
69369;SDS011;56530;42.640;23.372;2022-12-18T12:49:02;22.47;;;12.43;;
69369;SDS011;56530;42.640;23.372;2022-12-18T12:51:33;19.58;;;12.40;;
69369;SDS011;56530;42.640;23.372;2022-12-18T12:54:01;16.60;;;11.60;;
69369;SDS011;56530;42.640;23.372;2022-12-18T12:56:43;20.63;;;12.73;;
69369;SDS011;56530;42.640;23.372;2022-12-18T12:59:16;22.87;;;12.30;;
69369;SDS011;56530;42.640;23.372;2022-12-18T13:01:49;19.67;;;12.70;;
69369;SDS011;56530;42.640;23.372;2022-12-18T13:07:09;20.20;;;12.57;;
69369;SDS011;56530;42.640;23.372;2022-12-18T13:10:10;20.42;;;13.40;;
69369;SDS011;56530;42.640;23.372;2022-12-18T13:20:41;19.58;;;13.32;;
69369;SDS011;56530;42.640;23.372;2022-12-18T13:28:22;27.38;;;14.95;;
69369;SDS011;56530;42.640;23.372;2022-12-18T13:31:08;19.63;;;12.73;;
69369;SDS011;56530;42.640;23.372;2022-12-18T13:36:41;18.00;;;12.50;;
69369;SDS011;56530;42.640;23.372;2022-12-18T13:41:39;19.02;;;12.75;;
69369;SDS011;56530;42.640;23.372;2022-12-18T13:44:22;17.08;;;12.02;;
69369;SDS011;56530;42.640;23.372;2022-12-18T13:46:51;18.92;;;11.82;;
69369;SDS011;56530;42.640;23.372;2022-12-18T13:52:15;21.83;;;13.15;;
69369;SDS011;56530;42.640;23.372;2022-12-18T13:54:41;21.92;;;12.45;;
69369;SDS011;56530;42.640;23.372;2022-12-18T14:02:47;20.20;;;13.40;;
69369;SDS011;56530;42.640;23.372;2022-12-18T14:07:51;18.15;;;12.68;;
69369;SDS011;56530;42.640;23.372;2022-12-18T14:10:18;21.60;;;13.60;;
69369;SDS011;56530;42.640;23.372;2022-12-18T14:12:47;20.80;;;12.43;;
69369;SDS011;56530;42.640;23.372;2022-12-18T14:17:52;18.83;;;13.70;;
69369;SDS011;56530;42.640;23.372;2022-12-18T14:20:18;18.60;;;13.10;;
69369;SDS011;56530;42.640;23.372;2022-12-18T14:22:44;20.33;;;11.97;;
69369;SDS011;56530;42.640;23.372;2022-12-18T14:25:16;18.30;;;12.50;;
69369;SDS011;56530;42.640;23.372;2022-12-18T14:27:53;19.90;;;12.97;;
69369;SDS011;56530;42.640;23.372;2022-12-18T14:30:31;18.47;;;11.93;;
69369;SDS011;56530;42.640;23.372;2022-12-18T14:35:39;17.67;;;12.07;;
69369;SDS011;56530;42.640;23.372;2022-12-18T14:40:34;22.38;;;12.45;;
69369;SDS011;56530;42.640;23.372;2022-12-18T14:43:00;15.87;;;11.37;;
69369;SDS011;56530;42.640;23.372;2022-12-18T14:45:33;16.33;;;10.00;;
69369;SDS011;56530;42.640;23.372;2022-12-18T14:48:06;14.05;;;10.43;;
69369;SDS011;56530;42.640;23.372;2022-12-18T14:50:38;15.57;;;10.13;;
69369;SDS011;56530;42.640;23.372;2022-12-18T14:53:03;15.20;;;9.98;;
69369;SDS011;56530;42.640;23.372;2022-12-18T14:55:31;16.70;;;10.30;;
69369;SDS011;56530;42.640;23.372;2022-12-18T14:57:57;15.38;;;10.10;;
69369;SDS011;56530;42.640;23.372;2022-12-18T15:00:23;16.52;;;10.77;;
69369;SDS011;56530;42.640;23.372;2022-12-18T15:02:50;18.67;;;11.13;;
69369;SDS011;56530;42.640;23.372;2022-12-18T15:07:46;18.83;;;9.93;;
69369;SDS011;56530;42.640;23.372;2022-12-18T15:10:14;14.70;;;11.37;;
69369;SDS011;56530;42.640;23.372;2022-12-18T15:15:52;17.05;;;10.68;;
69369;SDS011;56530;42.640;23.372;2022-12-18T15:18:19;15.85;;;11.45;;
69369;SDS011;56530;42.640;23.372;2022-12-18T15:31:02;16.73;;;11.30;;
69369;SDS011;56530;42.640;23.372;2022-12-18T15:36:18;17.13;;;11.33;;
69369;SDS011;56530;42.640;23.372;2022-12-18T15:38:47;15.32;;;11.93;;
69369;SDS011;56530;42.640;23.372;2022-12-18T15:41:14;15.75;;;10.25;;
69369;SDS011;56530;42.640;23.372;2022-12-18T15:43:40;15.20;;;10.48;;
69369;SDS011;56530;42.640;23.372;2022-12-18T15:46:08;20.35;;;10.85;;
69369;SDS011;56530;42.640;23.372;2022-12-18T15:48:41;15.47;;;10.83;;
69369;SDS011;56530;42.640;23.372;2022-12-18T15:53:51;15.13;;;10.63;;
69369;SDS011;56530;42.640;23.372;2022-12-18T15:56:18;17.20;;;10.27;;
69369;SDS011;56530;42.640;23.372;2022-12-18T15:59:02;15.87;;;11.43;;
69369;SDS011;56530;42.640;23.372;2022-12-18T16:01:29;18.53;;;12.30;;
69369;SDS011;56530;42.640;23.372;2022-12-18T16:03:55;15.43;;;10.87;;
69369;SDS011;56530;42.640;23.372;2022-12-18T16:06:21;17.75;;;11.27;;
69369;SDS011;56530;42.640;23.372;2022-12-18T16:08:46;19.30;;;12.50;;
69369;SDS011;56530;42.640;23.372;2022-12-18T16:11:23;17.53;;;12.07;;
69369;SDS011;56530;42.640;23.372;2022-12-18T16:16:44;19.83;;;11.83;;
69369;SDS011;56530;42.640;23.372;2022-12-18T16:19:10;18.13;;;11.50;;
69369;SDS011;56530;42.640;23.372;2022-12-18T16:21:36;13.57;;;10.30;;
69369;SDS011;56530;42.640;23.372;2022-12-18T16:24:01;18.17;;;11.13;;
69369;SDS011;56530;42.640;23.372;2022-12-18T16:26:27;15.83;;;11.40;;
69369;SDS011;56530;42.640;23.372;2022-12-18T16:28:52;14.77;;;10.37;;
69369;SDS011;56530;42.640;23.372;2022-12-18T16:31:18;14.23;;;10.53;;
69369;SDS011;56530;42.640;23.372;2022-12-18T16:33:44;17.30;;;11.40;;
69369;SDS011;56530;42.640;23.372;2022-12-18T16:36:09;14.87;;;10.37;;
69369;SDS011;56530;42.640;23.372;2022-12-18T16:38:35;15.70;;;10.77;;
69369;SDS011;56530;42.640;23.372;2022-12-18T16:41:00;15.93;;;10.30;;
69369;SDS011;56530;42.640;23.372;2022-12-18T16:43:44;19.60;;;12.53;;
69369;SDS011;56530;42.640;23.372;2022-12-18T16:46:09;17.13;;;10.63;;
69369;SDS011;56530;42.640;23.372;2022-12-18T16:48:35;14.83;;;10.30;;
69369;SDS011;56530;42.640;23.372;2022-12-18T16:51:02;17.13;;;10.00;;
69369;SDS011;56530;42.640;23.372;2022-12-18T16:53:28;15.87;;;10.37;;
69369;SDS011;56530;42.640;23.372;2022-12-18T16:55:57;15.60;;;10.53;;
69369;SDS011;56530;42.640;23.372;2022-12-18T16:58:22;14.97;;;11.00;;
69369;SDS011;56530;42.640;23.372;2022-12-18T17:00:48;15.43;;;10.97;;
69369;SDS011;56530;42.640;23.372;2022-12-18T17:03:13;14.40;;;10.93;;